Aeroporto :
LOGIN :

Iscrizione | Disclaimer

   EN    FR    IT 

 










Sommario :    VFR   VFR Marginale   IFR   IFR Intensivo   IFR Molto Intensivo
Visibilità : 
Base nubi : 
>= 8 km
>= 3000ft
5 / 8 km
1000 / 3000 ft
1500m / 5 km
500 / 1000 ft
800 / 1500m
200 / 500 ft
< 800m
< 200 ft
Simboli :   Temporali  Nebbia  Neve Forte  Precipitazioni Forti  Vento > 20 kt
SIGMETs :   Varie  Temporali  Ghiacco  Turbolenza  Onda orograficha  Ceneri Vulcaniche







- Altitudine del aeroporto : 31 ft
- Codice IATA : INV
- Carte del aeroporto


EGPE - Inverness

ULTIMO METAR :
  • 240620Z 26011KT 9999 FEW018 BKN026 11/06 Q1015

METARs OBSOLETI :
  • 240550Z 25010KT 9999 SCT022 BKN031 10/06 Q1014
  • 240520Z 25009KT 9999 FEW022 SCT032 09/06 Q1014
  • 240450Z 24009KT 9999 SCT022 09/06 Q1014
  • 240420Z 24009KT 200V260 9999 BKN020 09/06 Q1014
  • 240350Z 25007KT 9999 BKN020 09/06 Q1014

TAF TAF EGPE
Valido dal 24 a 06 ore il 24 a 15 ore UTC


240455Z 2406/2415 25010KT 9999 FEW015 BKN020
ATIS : +44 1667 464 255
Nessun NOTAM noto per questo aeroporto.



MetMap, La meteo Aeronautica in un colpo d'occhio ! - Copyright ORBIFLY Dicembre 2007 - Disclaimer

ORBIFLY MET'MAP TEAM :

Programmazione e sviluppo : Alexandra Zaïnal
Concezione e sviluppo : Baudouin d'Aumeries
Co-Programmazione e sviluppo : Marc-Olivier Méhu
Supporto tecnico e logistico : Manuel Goepfert
Aiuto per la traduzione : Arnaldo La Scala

Contatto : metmap@orbifly.com




FONTI E CREDITI :

   NOAA